createdAt,value
2017-10-27T00:02:22.522Z,97452.75
2017-10-27T00:04:50.678Z,97449.39
2017-10-27T00:07:18.292Z,97443.89
2017-10-27T00:09:46.228Z,97444.27
2017-10-27T00:12:13.815Z,97447.59
2017-10-27T00:14:41.376Z,97439.96
2017-10-27T00:17:08.981Z,97439.08
2017-10-27T00:19:36.577Z,97444.44
2017-10-27T00:22:04.161Z,97439.78
2017-10-27T00:24:31.752Z,97440.59
2017-10-27T00:26:59.365Z,97442.69
2017-10-27T00:29:26.945Z,97436.78
2017-10-27T00:31:54.532Z,97438.91
2017-10-27T00:34:22.135Z,97436.04
2017-10-27T00:36:49.722Z,97433.95
2017-10-27T00:39:17.366Z,97427.23
2017-10-27T00:41:44.949Z,97416.66
2017-10-27T00:44:12.945Z,97420.48
2017-10-27T00:46:40.520Z,97417.55
2017-10-27T00:49:08.114Z,97424.77
2017-10-27T00:51:35.794Z,97422.23
2017-10-27T00:54:03.738Z,97421.38
2017-10-27T00:56:31.282Z,97424.82
2017-10-27T00:58:58.831Z,97423.14
2017-10-27T01:01:26.443Z,97417.23
2017-10-27T01:03:54.017Z,97406.22
2017-10-27T01:06:21.602Z,97396.91
2017-10-27T01:08:49.195Z,97385.52
2017-10-27T01:11:16.787Z,97377.53
2017-10-27T01:13:44.365Z,97376.69
2017-10-27T01:16:12.282Z,97376.28
2017-10-27T01:18:40.193Z,97381.78
2017-10-27T01:21:07.766Z,97380.97
2017-10-27T01:23:35.363Z,97376.78
2017-10-27T01:26:02.930Z,97370.44
2017-10-27T01:28:30.496Z,97359.48
2017-10-27T01:30:58.142Z,97359.53
2017-10-27T01:33:25.721Z,97349.40
2017-10-27T01:35:53.788Z,97350.28
2017-10-27T01:38:21.764Z,97347.33
2017-10-27T01:40:49.317Z,97349.89
2017-10-27T01:43:16.862Z,97341.87
2017-10-27T01:45:44.573Z,97344.81
2017-10-27T01:48:12.159Z,97339.38
2017-10-27T01:50:40.129Z,97335.59
2017-10-27T01:53:07.673Z,97331.77
2017-10-27T01:55:35.269Z,97324.58
2017-10-27T01:58:02.829Z,97334.32
2017-10-27T02:00:30.471Z,97327.57
2017-10-27T02:02:58.048Z,97319.13
2017-10-27T02:05:26.027Z,97316.98
2017-10-27T02:07:53.589Z,97319.98
2017-10-27T02:10:21.263Z,97308.59
2017-10-27T02:12:48.970Z,97305.62
2017-10-27T02:15:16.637Z,97307.77
2017-10-27T02:17:44.239Z,97309.49
2017-10-27T02:20:12.211Z,97302.30
2017-10-27T02:22:40.061Z,97299.78
2017-10-27T02:25:07.617Z,97296.04
2017-10-27T02:27:35.183Z,97296.92
2017-10-27T02:30:02.777Z,97293.53
2017-10-27T02:32:30.737Z,97280.87
2017-10-27T02:34:58.410Z,97280.06
2017-10-27T02:37:26.058Z,97278.38
2017-10-27T02:39:53.691Z,97280.93
2017-10-27T02:42:21.319Z,97280.09
2017-10-27T02:44:49.056Z,97277.55
2017-10-27T02:47:16.631Z,97270.38
2017-10-27T02:49:44.223Z,97266.60
2017-10-27T02:52:11.828Z,97262.78
2017-10-27T02:54:39.409Z,97261.96
2017-10-27T02:57:07.100Z,97262.84
2017-10-27T02:59:34.641Z,97257.35
2017-10-27T03:02:02.251Z,97259.47
2017-10-27T03:04:29.813Z,97263.72
2017-10-27T03:06:57.394Z,97252.73
2017-10-27T03:09:24.985Z,97250.20
2017-10-27T03:11:52.563Z,97254.04
2017-10-27T03:14:20.155Z,97251.95
2017-10-27T03:16:48.040Z,97249.42
2017-10-27T03:19:16.317Z,97258.73
2017-10-27T03:21:44.061Z,97248.57
2017-10-27T03:24:11.622Z,97250.74
2017-10-27T03:26:39.207Z,97241.89
2017-10-27T03:29:06.905Z,97241.04
2017-10-27T03:31:34.837Z,97241.51
2017-10-27T03:34:02.405Z,97238.54
2017-10-27T03:36:29.966Z,97233.50
2017-10-27T03:38:57.556Z,97231.83
2017-10-27T03:41:25.125Z,97231.44
2017-10-27T03:43:52.728Z,97224.69
2017-10-27T03:46:20.293Z,97226.84
2017-10-27T03:48:47.888Z,97221.80
2017-10-27T03:51:15.497Z,97220.53
2017-10-27T03:53:43.179Z,97221.83
2017-10-27T03:56:11.155Z,97215.52
2017-10-27T03:58:39.145Z,97202.82
2017-10-27T04:01:06.743Z,97199.44
2017-10-27T04:03:34.424Z,97197.77
2017-10-27T04:06:02.001Z,97195.27
2017-10-27T04:08:29.713Z,97192.73
2017-10-27T04:10:57.282Z,97181.76
2017-10-27T04:13:24.862Z,97186.02
2017-10-27T04:15:52.477Z,97186.47
2017-10-27T04:18:21.599Z,97183.51
2017-10-27T04:20:49.153Z,97176.30
2017-10-27T04:23:16.727Z,97176.75
2017-10-27T04:25:44.387Z,97175.47
2017-10-27T04:28:11.972Z,97172.11
2017-10-27T04:30:39.564Z,97167.46
2017-10-27T04:33:07.241Z,97169.57
2017-10-27T04:35:34.859Z,97168.29
2017-10-27T04:38:02.418Z,97167.47
2017-10-27T04:40:30.015Z,97158.99
2017-10-27T04:42:57.602Z,97159.42
2017-10-27T04:45:25.176Z,97156.91
2017-10-27T04:47:53.131Z,97150.53
2017-10-27T04:50:20.714Z,97150.13
2017-10-27T04:52:48.307Z,97145.45
2017-10-27T04:55:15.920Z,97150.98
2017-10-27T04:57:43.621Z,97143.80
2017-10-27T05:00:11.225Z,97141.67
2017-10-27T05:02:39.214Z,97132.79
2017-10-27T05:05:07.239Z,97130.69
2017-10-27T05:07:34.813Z,97128.14
2017-10-27T05:10:02.393Z,97127.75
2017-10-27T05:12:29.992Z,97119.23
2017-10-27T05:14:57.555Z,97114.13
2017-10-27T05:17:30.656Z,97104.78
2017-10-27T05:20:03.827Z,97109.45
2017-10-27T05:22:37.181Z,97121.31
2017-10-27T05:25:04.777Z,97115.44
2017-10-27T05:27:32.375Z,97110.77
2017-10-27T05:29:59.976Z,97109.95
2017-10-27T05:32:28.041Z,97112.50
2017-10-27T05:34:55.606Z,97104.00
2017-10-27T05:37:23.162Z,97095.54
2017-10-27T05:39:50.772Z,97086.66
2017-10-27T05:42:18.744Z,97087.52
2017-10-27T05:44:46.634Z,97090.95
2017-10-27T05:47:14.206Z,97095.59
2017-10-27T05:49:42.332Z,97097.30
2017-10-27T05:52:09.931Z,97100.69
2017-10-27T05:54:37.528Z,97104.95
2017-10-27T05:57:05.139Z,97104.94
2017-10-27T05:59:33.104Z,97108.31
2017-10-27T06:02:01.392Z,97106.63
2017-10-27T06:04:28.986Z,97107.92
2017-10-27T06:06:56.578Z,97112.16
2017-10-27T06:09:24.375Z,97110.48
2017-10-27T06:11:53.990Z,97133.80
2017-10-27T06:14:21.686Z,97129.58
2017-10-27T06:16:49.575Z,97134.29
2017-10-27T06:19:19.077Z,97151.67
2017-10-27T06:21:46.702Z,97154.71
2017-10-27T06:24:14.399Z,97154.75
2017-10-27T06:26:41.996Z,97156.89
2017-10-27T06:29:09.934Z,97155.68
2017-10-27T06:31:37.965Z,97152.73
2017-10-27T06:34:05.576Z,97156.19
2017-10-27T06:36:33.192Z,97152.39
2017-10-27T06:39:00.774Z,97158.39
2017-10-27T06:41:28.665Z,97157.55
2017-10-27T06:43:56.268Z,97163.94
2017-10-27T06:46:23.855Z,97167.34
2017-10-27T06:48:51.455Z,97176.69
2017-10-27T06:51:19.021Z,97168.20
2017-10-27T06:53:47.338Z,97163.11
2017-10-27T06:56:14.915Z,97159.33
2017-10-27T06:58:42.490Z,97153.80
2017-10-27T07:01:10.102Z,97157.17
2017-10-27T07:03:37.684Z,97170.33
2017-10-27T07:06:05.603Z,97168.21
2017-10-27T07:08:33.568Z,97172.87
2017-10-27T07:11:01.160Z,97152.08
2017-10-27T07:13:28.762Z,97155.08
2017-10-27T07:15:56.318Z,97154.69
2017-10-27T07:18:24.504Z,97155.10
2017-10-27T07:20:52.074Z,97155.98
2017-10-27T07:23:19.801Z,97156.47
2017-10-27T07:25:47.376Z,97148.03
2017-10-27T07:28:14.950Z,97151.00
2017-10-27T07:30:42.565Z,97155.70
2017-10-27T07:33:10.551Z,97149.31
2017-10-27T07:35:38.590Z,97135.32
2017-10-27T07:38:06.167Z,97144.66
2017-10-27T07:40:33.735Z,97151.42
2017-10-27T07:43:01.307Z,97142.08
2017-10-27T07:45:28.956Z,97136.55
2017-10-27T07:47:56.543Z,97153.09
2017-10-27T07:50:24.108Z,97140.36
2017-10-27T07:52:52.656Z,97161.12
2017-10-27T07:55:20.593Z,97160.66
2017-10-27T07:57:48.166Z,97153.86
2017-10-27T08:00:15.769Z,97155.55
2017-10-27T08:02:43.707Z,97161.05
2017-10-27T08:05:11.329Z,97157.22
2017-10-27T08:07:39.078Z,97166.97
2017-10-27T08:10:06.997Z,97189.88
2017-10-27T08:12:34.569Z,97208.89
2017-10-27T08:15:02.108Z,97227.32
2017-10-27T08:17:29.693Z,97252.82
2017-10-27T08:19:57.895Z,97256.55
2017-10-27T08:22:25.494Z,97267.79
2017-10-27T08:24:53.097Z,97276.75
2017-10-27T08:27:20.795Z,97286.47
2017-10-27T08:29:48.340Z,97281.21
2017-10-27T08:32:15.906Z,97282.53
2017-10-27T08:34:43.901Z,97290.01
2017-10-27T08:37:11.872Z,97292.60
2017-10-27T08:39:39.864Z,97300.17
2017-10-27T08:42:07.430Z,97308.17
2017-10-27T08:44:35.300Z,97306.02
2017-10-27T08:47:02.897Z,97312.29
2017-10-27T08:49:30.445Z,97325.30
2017-10-27T08:51:58.097Z,97330.30
2017-10-27T08:54:25.663Z,97333.56
2017-10-27T08:56:53.431Z,97347.44
2017-10-27T08:59:21.016Z,97338.98
2017-10-27T09:01:48.920Z,97352.12
2017-10-27T09:04:16.473Z,97349.81
2017-10-27T09:06:44.067Z,97358.33
2017-10-27T09:09:12.157Z,97371.00
2017-10-27T09:11:39.761Z,97372.22
2017-10-27T09:14:07.336Z,97376.86
2017-10-27T09:16:34.925Z,97386.81
2017-10-27T09:19:03.131Z,97390.91
2017-10-27T09:21:33.239Z,97393.05
2017-10-27T09:24:00.790Z,97409.95
2017-10-27T09:26:28.370Z,97414.94
2017-10-27T09:28:56.297Z,97418.52
2017-10-27T09:31:23.897Z,97435.27
2017-10-27T09:33:51.449Z,97451.75
2017-10-27T09:36:19.067Z,97449.44
2017-10-27T09:38:46.621Z,97463.81
2017-10-27T09:41:14.219Z,97471.42
2017-10-27T09:43:42.208Z,97475.38
2017-10-27T09:46:10.125Z,97484.88
2017-10-27T09:48:37.727Z,97489.48
2017-10-27T09:51:07.722Z,97495.45
2017-10-27T09:53:35.744Z,97507.38
2017-10-27T09:56:03.284Z,97507.67
2017-10-27T09:58:31.248Z,97517.70
2017-10-27T10:00:58.814Z,97519.25
2017-10-27T10:03:27.275Z,97509.80
2017-10-27T10:05:55.296Z,97524.73
2017-10-27T10:08:22.875Z,97522.98
2017-10-27T10:10:50.459Z,97522.23
2017-10-27T10:13:18.034Z,97531.47
2017-10-27T10:15:45.615Z,97547.47
2017-10-27T10:18:13.199Z,97539.63
2017-10-27T10:20:41.333Z,97536.05
2017-10-27T10:23:08.905Z,97537.06
2017-10-27T10:25:36.502Z,97547.05
2017-10-27T10:28:04.079Z,97542.91
2017-10-27T10:30:33.279Z,97544.75
2017-10-27T10:33:01.275Z,97550.22
2017-10-27T10:35:28.855Z,97557.14
2017-10-27T10:37:56.430Z,97559.53
2017-10-27T10:40:24.007Z,97561.81
2017-10-27T10:42:51.597Z,97573.80
2017-10-27T10:45:19.174Z,97580.80
2017-10-27T10:47:46.772Z,97587.63
2017-10-27T10:50:14.377Z,97579.59
2017-10-27T10:52:41.930Z,97580.48
2017-10-27T10:55:09.546Z,97565.33
2017-10-27T10:57:37.093Z,97564.77
2017-10-27T11:00:04.655Z,97565.48
2017-10-27T11:02:32.224Z,97568.90
2017-10-27T11:04:59.826Z,97560.08
2017-10-27T11:07:27.416Z,97567.78
2017-10-27T11:09:54.996Z,97572.05
2017-10-27T11:12:22.572Z,97564.20
2017-10-27T11:14:50.148Z,97556.53
2017-10-27T11:17:17.728Z,97573.02
2017-10-27T11:19:45.310Z,97578.04
2017-10-27T11:22:12.898Z,97569.25
2017-10-27T11:24:40.478Z,97568.92
2017-10-27T11:27:08.073Z,97578.41
2017-10-27T11:29:35.642Z,97578.89
2017-10-27T11:32:03.252Z,97579.52
2017-10-27T11:34:31.349Z,97559.66
2017-10-27T11:36:59.397Z,97565.56
2017-10-27T11:39:27.007Z,97565.41
2017-10-27T11:41:54.589Z,97560.86
2017-10-27T11:44:22.243Z,97562.75
2017-10-27T11:46:49.820Z,97574.30
2017-10-27T11:49:17.414Z,97582.67
2017-10-27T11:51:45.413Z,97580.12
2017-10-27T11:54:12.996Z,97576.41
2017-10-27T11:56:40.598Z,97574.48
2017-10-27T11:59:08.170Z,97585.92
2017-10-27T12:01:35.742Z,97577.83
2017-10-27T12:04:04.747Z,97585.31
2017-10-27T12:06:32.347Z,97582.53
2017-10-27T12:09:00.442Z,97577.63
2017-10-27T12:11:28.324Z,97573.94
2017-10-27T12:13:56.378Z,97579.15
2017-10-27T12:16:23.977Z,97584.39
2017-10-27T12:18:51.553Z,97585.70
2017-10-27T12:21:19.664Z,97595.91
2017-10-27T12:23:47.677Z,97599.52
2017-10-27T12:26:15.246Z,97601.44
2017-10-27T12:28:42.875Z,97606.23
2017-10-27T12:31:10.487Z,97610.91
2017-10-27T12:33:38.071Z,97613.40
2017-10-27T12:36:05.667Z,97623.14
2017-10-27T12:38:33.205Z,97625.71
2017-10-27T12:41:00.855Z,97626.09
2017-10-27T12:43:28.532Z,97630.11
2017-10-27T12:45:56.191Z,97644.91
2017-10-27T12:48:23.770Z,97637.16
2017-10-27T12:50:51.389Z,97637.09
2017-10-27T12:53:18.954Z,97642.80
2017-10-27T12:55:46.912Z,97640.25
2017-10-27T12:58:14.459Z,97642.98
2017-10-27T13:00:42.192Z,97643.34
2017-10-27T13:03:09.824Z,97647.77
2017-10-27T13:05:37.485Z,97642.04
2017-10-27T13:08:05.097Z,97637.87
2017-10-27T13:10:32.664Z,97644.34
2017-10-27T13:13:00.268Z,97639.60
2017-10-27T13:15:27.895Z,97647.50
2017-10-27T13:17:55.504Z,97651.22
2017-10-27T13:20:23.087Z,97657.54
2017-10-27T13:22:50.657Z,97661.73
2017-10-27T13:25:18.260Z,97667.48
2017-10-27T13:27:46.247Z,97658.85
2017-10-27T13:30:14.187Z,97670.39
2017-10-27T13:32:41.764Z,97671.22
2017-10-27T13:35:09.391Z,97675.97
2017-10-27T13:37:36.979Z,97677.75
2017-10-27T13:40:04.596Z,97682.52
2017-10-27T13:42:32.184Z,97688.91
2017-10-27T13:44:59.779Z,97681.36
2017-10-27T13:47:27.407Z,97690.36
2017-10-27T13:49:54.997Z,97689.34
2017-10-27T13:52:22.595Z,97690.95
2017-10-27T13:54:50.183Z,97685.63
2017-10-27T13:57:17.771Z,97687.77
2017-10-27T13:59:45.345Z,97695.77
2017-10-27T14:02:13.045Z,97693.30
2017-10-27T14:04:40.662Z,97694.65
2017-10-27T14:07:08.255Z,97706.59
2017-10-27T14:09:35.873Z,97701.05
2017-10-27T14:12:03.814Z,97704.03
2017-10-27T14:14:31.426Z,97704.92
2017-10-27T14:16:59.455Z,97714.36
2017-10-27T14:19:27.071Z,97708.44
2017-10-27T14:21:54.643Z,97711.43
2017-10-27T14:24:22.242Z,97719.92
2017-10-27T14:26:50.306Z,97734.72
2017-10-27T14:29:17.953Z,97742.94
2017-10-27T14:31:45.556Z,97748.93
2017-10-27T14:34:13.119Z,97756.81
2017-10-27T14:36:40.721Z,97784.63
2017-10-27T14:39:08.716Z,97782.50
2017-10-27T14:41:36.383Z,97788.55
2017-10-27T14:44:04.001Z,97785.30
2017-10-27T14:46:33.099Z,97781.88
2017-10-27T14:49:00.731Z,97793.02
2017-10-27T14:51:29.735Z,97790.34
2017-10-27T14:53:57.477Z,97792.34
2017-10-27T14:56:25.076Z,97792.05
2017-10-27T14:58:52.757Z,97802.84
2017-10-27T15:01:20.364Z,97795.73
2017-10-27T15:03:47.944Z,97803.31
2017-10-27T15:06:15.565Z,97797.39
2017-10-27T15:08:43.149Z,97794.41
2017-10-27T15:11:11.004Z,97797.80
2017-10-27T15:13:38.645Z,97795.30
2017-10-27T15:16:06.396Z,97799.19
2017-10-27T15:18:33.993Z,97807.22
2017-10-27T15:21:01.571Z,97809.25
2017-10-27T15:23:29.160Z,97805.06
2017-10-27T15:25:56.753Z,97811.79
2017-10-27T15:28:24.470Z,97808.44
2017-10-27T15:30:52.043Z,97816.47
2017-10-27T15:33:19.660Z,97813.12
2017-10-27T15:35:47.929Z,97814.31
2017-10-27T15:38:15.522Z,97818.31
2017-10-27T15:40:43.130Z,97821.06
2017-10-27T15:43:10.711Z,97828.14
2017-10-27T15:45:38.299Z,97836.83
2017-10-27T15:48:05.904Z,97836.31
2017-10-27T15:50:33.488Z,97838.41
2017-10-27T15:53:01.071Z,97840.06
2017-10-27T15:55:28.643Z,97842.45
2017-10-27T15:57:56.245Z,97842.73
2017-10-27T16:00:23.799Z,97849.48
2017-10-27T16:02:51.415Z,97858.75
2017-10-27T16:05:18.977Z,97852.68
2017-10-27T16:07:46.576Z,97858.47
2017-10-27T16:10:14.157Z,97854.97
2017-10-27T16:12:41.759Z,97864.63
2017-10-27T16:15:09.360Z,97869.11
2017-10-27T16:17:36.971Z,97870.69
2017-10-27T16:20:04.560Z,97870.25
2017-10-27T16:22:32.133Z,97870.16
2017-10-27T16:24:59.762Z,97872.96
2017-10-27T16:27:27.323Z,97875.80
2017-10-27T16:29:54.914Z,97874.83
2017-10-27T16:32:22.654Z,97876.87
2017-10-27T16:34:50.272Z,97872.56
2017-10-27T16:37:17.863Z,97878.41
2017-10-27T16:39:45.454Z,97882.11
2017-10-27T16:42:13.074Z,97883.70
2017-10-27T16:44:40.643Z,97891.11
2017-10-27T16:47:08.267Z,97899.77
2017-10-27T16:49:35.837Z,97908.56
2017-10-27T16:52:03.622Z,97909.73
2017-10-27T16:54:31.690Z,97919.69
2017-10-27T16:56:59.569Z,97929.79
2017-10-27T16:59:27.128Z,97939.42
2017-10-27T17:01:54.709Z,97941.44
2017-10-27T17:04:22.344Z,97944.30
2017-10-27T17:06:49.943Z,97955.20
2017-10-27T17:09:17.562Z,97952.52
2017-10-27T17:11:45.186Z,97958.77
2017-10-27T17:14:13.123Z,97962.13
2017-10-27T17:16:41.596Z,97962.53
2017-10-27T17:19:09.265Z,97970.02
2017-10-27T17:21:36.865Z,97962.41
2017-10-27T17:24:04.886Z,97968.75
2017-10-27T17:26:32.891Z,97980.11
2017-10-27T17:29:00.494Z,97976.31
2017-10-27T17:31:28.071Z,97980.19
2017-10-27T17:33:55.696Z,97981.49
2017-10-27T17:36:23.313Z,97984.47
2017-10-27T17:38:50.946Z,97992.54
2017-10-27T17:41:18.581Z,97994.59
2017-10-27T17:43:47.584Z,98002.71
2017-10-27T17:46:15.161Z,98007.78
2017-10-27T17:48:42.991Z,98016.69
2017-10-27T17:51:13.945Z,98017.52
2017-10-27T17:53:42.949Z,98025.16
2017-10-27T17:56:11.904Z,98026.35
2017-10-27T17:58:41.707Z,98028.09
2017-10-27T18:01:09.395Z,98025.16
2017-10-27T18:03:37.265Z,98025.92
2017-10-27T18:06:04.988Z,98021.72
2017-10-27T18:08:32.832Z,98017.80
2017-10-27T18:11:00.782Z,98020.84
2017-10-27T18:13:28.532Z,98021.64
2017-10-27T18:15:56.322Z,98019.11
2017-10-27T18:18:25.110Z,98022.91
2017-10-27T18:20:52.934Z,98027.93
2017-10-27T18:23:21.353Z,98028.77
2017-10-27T18:25:49.343Z,98021.55
2017-10-27T18:28:17.209Z,98022.27
2017-10-27T18:30:45.042Z,98020.52
2017-10-27T18:33:14.271Z,98023.81
2017-10-27T18:35:42.445Z,98019.10
2017-10-27T18:38:10.414Z,98013.48
2017-10-27T18:40:38.702Z,98016.75
2017-10-27T18:43:07.657Z,98019.52
2017-10-27T18:45:36.483Z,98020.27
2017-10-27T18:48:04.958Z,98022.67
2017-10-27T18:50:33.232Z,98032.72
2017-10-27T18:53:01.147Z,98033.77
2017-10-27T18:55:29.273Z,98031.98
2017-10-27T18:57:57.792Z,98040.68
2017-10-27T19:00:25.813Z,98037.98
2017-10-27T19:02:54.418Z,98045.57
2017-10-27T19:05:22.395Z,98046.41
2017-10-27T19:07:50.368Z,98051.81
2017-10-27T19:10:18.417Z,98052.52
2017-10-27T19:12:46.280Z,98043.34
2017-10-27T19:28:21.782Z,98065.30
2017-10-27T19:30:49.793Z,98061.98
2017-10-27T19:33:17.759Z,98067.56
2017-10-27T19:35:45.727Z,98061.73
2017-10-27T19:38:13.678Z,98064.26
2017-10-27T19:40:42.187Z,98066.91
2017-10-27T19:43:10.151Z,98059.80
2017-10-27T19:45:38.836Z,98067.39
2017-10-27T19:48:06.702Z,98063.64
2017-10-27T19:50:35.189Z,98068.78
2017-10-27T19:53:03.039Z,98065.91
2017-10-27T19:55:31.465Z,98070.18
2017-10-27T19:57:59.274Z,98066.43
2017-10-27T20:00:29.529Z,98064.81
2017-10-27T20:02:57.494Z,98065.30
2017-10-27T20:05:25.467Z,98065.30
2017-10-27T20:07:53.233Z,98068.27
2017-10-27T20:10:21.700Z,98067.47
2017-10-27T20:12:49.680Z,98067.52
2017-10-27T20:15:17.546Z,98069.12
2017-10-27T20:17:45.609Z,98072.11
2017-10-27T20:20:13.592Z,98072.09
2017-10-27T20:22:41.558Z,98070.80
2017-10-27T20:25:10.143Z,98074.98
2017-10-27T20:27:38.020Z,98077.95
2017-10-27T20:30:05.793Z,98088.52
2017-10-27T20:32:34.050Z,98081.75
2017-10-27T20:35:02.779Z,98096.07
2017-10-27T20:37:30.763Z,98097.34
2017-10-27T20:39:59.085Z,98095.59
2017-10-27T20:42:26.922Z,98091.41
2017-10-27T20:44:55.026Z,98098.20
2017-10-27T20:47:24.065Z,98091.84
2017-10-27T20:49:51.858Z,98090.58
2017-10-27T20:52:20.661Z,98091.80
2017-10-27T20:54:48.364Z,98087.13
2017-10-27T20:57:16.216Z,98086.69
2017-10-27T20:59:44.123Z,98085.38
2017-10-27T21:02:12.571Z,98086.08
2017-10-27T21:04:41.443Z,98092.84
2017-10-27T21:07:09.864Z,98083.11
2017-10-27T21:09:37.557Z,98083.07
2017-10-27T21:12:05.298Z,98083.50
2017-10-27T21:14:32.887Z,98082.58
2017-10-27T21:17:02.539Z,98080.89
2017-10-27T21:19:30.116Z,98083.86
2017-10-27T21:21:57.915Z,98084.41
2017-10-27T21:24:25.523Z,98081.45
2017-10-27T21:26:53.182Z,98084.02
2017-10-27T21:29:20.748Z,98082.72
2017-10-27T21:31:48.812Z,98082.33
2017-10-27T21:34:16.406Z,98083.19
2017-10-27T21:36:44.443Z,98082.36
2017-10-27T21:39:13.627Z,98084.77
2017-10-27T21:41:42.593Z,98084.34
2017-10-27T21:44:12.056Z,98088.97
2017-10-27T21:46:39.718Z,98089.05
2017-10-27T21:49:07.309Z,98091.58
2017-10-27T21:51:34.939Z,98085.64
2017-10-27T21:54:02.542Z,98084.41
2017-10-27T21:56:30.086Z,98087.00
2017-10-27T21:58:57.665Z,98083.59
2017-10-27T22:01:25.243Z,98084.46
2017-10-27T22:03:52.836Z,98086.17
2017-10-27T22:06:20.435Z,98080.63
2017-10-27T22:08:48.013Z,98081.97
2017-10-27T22:11:15.594Z,98080.75
2017-10-27T22:13:43.197Z,98079.97
2017-10-27T22:16:10.758Z,98095.37
2017-10-27T22:18:38.365Z,98082.71
2017-10-27T22:21:05.947Z,98081.92
2017-10-27T22:23:33.527Z,98076.55
2017-10-27T22:26:01.082Z,98072.39
2017-10-27T22:28:28.677Z,98082.09
2017-10-27T22:30:56.264Z,98070.22
2017-10-27T22:33:23.882Z,98072.75
2017-10-27T22:35:51.461Z,98073.23
2017-10-27T22:38:19.047Z,98071.09
2017-10-27T22:40:53.836Z,98068.55
2017-10-27T22:43:22.469Z,98055.81
2017-10-27T22:45:50.027Z,98052.02
2017-10-27T22:48:17.619Z,98053.63
2017-10-27T22:50:45.190Z,98047.34
2017-10-27T22:53:12.837Z,98035.03
2017-10-27T22:55:41.186Z,98021.45
2017-10-27T22:58:09.270Z,98010.84
2017-10-27T23:00:36.848Z,98016.30
2017-10-27T23:03:04.419Z,98022.20
2017-10-27T23:05:32.027Z,98029.80
2017-10-27T23:08:05.062Z,98031.89
2017-10-27T23:10:32.648Z,98023.38
2017-10-27T23:13:00.211Z,98022.47
2017-10-27T23:15:27.793Z,98019.45
2017-10-27T23:17:55.398Z,98021.11
2017-10-27T23:20:23.012Z,98018.06
2017-10-27T23:22:50.578Z,98014.27
2017-10-27T23:25:18.530Z,98010.34
2017-10-27T23:27:46.186Z,98028.85
2017-10-27T23:30:13.815Z,98025.05
2017-10-27T23:32:41.376Z,98023.39
2017-10-27T23:35:08.953Z,98024.92
2017-10-27T23:37:37.855Z,98022.31
2017-10-27T23:40:05.434Z,98019.69
2017-10-27T23:42:33.399Z,98012.97
2017-10-27T23:45:01.077Z,98018.91
2017-10-27T23:47:28.652Z,98009.13
2017-10-27T23:49:56.242Z,98010.75
2017-10-27T23:52:23.804Z,98010.70
2017-10-27T23:54:51.462Z,98014.11
2017-10-27T23:57:19.026Z,98012.84
2017-10-27T23:59:46.617Z,98019.13
